createdAt,value
2023-03-30T00:00:59.248Z,23.92
2023-03-30T00:01:59.262Z,23.94
2023-03-30T00:02:59.402Z,23.92
2023-03-30T00:03:59.499Z,23.94
2023-03-30T00:04:59.440Z,23.91
2023-03-30T00:05:59.299Z,23.92
2023-03-30T00:06:59.331Z,23.92
2023-03-30T00:07:59.354Z,23.94
2023-03-30T00:08:59.892Z,23.95
2023-03-30T00:09:59.374Z,23.92
2023-03-30T00:10:59.894Z,23.92
2023-03-30T00:11:59.390Z,23.94
2023-03-30T00:12:59.405Z,23.92
2023-03-30T00:13:59.409Z,23.92
2023-03-30T00:14:59.425Z,23.91
2023-03-30T00:15:59.504Z,23.91
2023-03-30T00:16:59.622Z,23.91
2023-03-30T00:17:59.521Z,23.91
2023-03-30T00:18:59.485Z,23.91
2023-03-30T00:19:59.526Z,23.92
2023-03-30T00:20:59.512Z,23.91
2023-03-30T00:21:59.529Z,23.92
2023-03-30T00:22:59.550Z,23.91
2023-03-30T00:23:59.562Z,23.94
2023-03-30T00:24:59.575Z,23.91
2023-03-30T00:25:59.593Z,23.91
2023-03-30T00:26:59.592Z,23.92
2023-03-30T00:27:59.636Z,23.92
2023-03-30T00:28:59.715Z,23.91
2023-03-30T00:29:59.656Z,23.91
2023-03-30T00:30:59.660Z,23.91
2023-03-30T00:31:59.709Z,23.91
2023-03-30T00:32:59.763Z,23.91
2023-03-30T00:33:59.724Z,23.91
2023-03-30T00:34:59.814Z,23.91
2023-03-30T00:35:59.771Z,23.89
2023-03-30T00:36:59.756Z,23.89
2023-03-30T00:37:59.773Z,23.91
2023-03-30T00:38:59.795Z,23.91
2023-03-30T00:39:59.832Z,23.89
2023-03-30T00:40:59.892Z,23.89
2023-03-30T00:41:59.840Z,23.89
2023-03-30T00:42:59.855Z,23.92
2023-03-30T00:43:59.875Z,23.91
2023-03-30T00:44:59.888Z,23.91
2023-03-30T00:45:59.970Z,23.91
2023-03-30T00:46:59.919Z,23.92
2023-03-30T00:48:00.002Z,23.91
2023-03-30T00:48:59.952Z,23.94
2023-03-30T00:49:59.969Z,23.92
2023-03-30T00:50:59.979Z,23.91
2023-03-30T00:52:00.030Z,23.94
2023-03-30T00:53:00.012Z,23.92
2023-03-30T00:54:00.127Z,23.92
2023-03-30T00:55:00.048Z,23.92
2023-03-30T00:56:00.056Z,23.92
2023-03-30T00:57:00.142Z,23.94
2023-03-30T00:58:00.117Z,23.94
2023-03-30T00:59:00.109Z,23.91
2023-03-30T01:00:00.190Z,23.92
2023-03-30T01:01:00.183Z,23.92
2023-03-30T01:02:00.166Z,23.94
2023-03-30T01:03:00.362Z,23.91
2023-03-30T01:04:00.204Z,23.91
2023-03-30T01:05:00.216Z,23.92
2023-03-30T01:06:00.228Z,23.95
2023-03-30T01:07:00.274Z,23.91
2023-03-30T01:08:00.269Z,23.92
2023-03-30T01:09:00.315Z,23.91
2023-03-30T01:10:00.299Z,23.92
2023-03-30T01:11:00.309Z,23.91
2023-03-30T01:12:00.330Z,23.91
2023-03-30T01:13:00.415Z,23.92
2023-03-30T01:14:00.369Z,23.94
2023-03-30T01:15:00.376Z,23.91
2023-03-30T01:16:00.925Z,23.94
2023-03-30T01:17:00.396Z,23.94
2023-03-30T01:18:00.465Z,23.94
2023-03-30T01:19:00.421Z,23.92
2023-03-30T01:20:00.429Z,23.94
2023-03-30T01:21:00.479Z,23.94
2023-03-30T01:22:00.524Z,23.94
2023-03-30T01:23:00.464Z,23.94
2023-03-30T01:24:00.482Z,23.92
2023-03-30T01:25:00.491Z,23.91
2023-03-30T01:26:00.519Z,23.94
2023-03-30T01:27:00.514Z,23.91
2023-03-30T01:28:00.540Z,23.92
2023-03-30T01:29:00.603Z,23.91
2023-03-30T01:30:00.570Z,23.89
2023-03-30T01:31:00.641Z,23.89
2023-03-30T01:32:00.608Z,23.91
2023-03-30T01:33:00.615Z,23.91
2023-03-30T01:34:00.613Z,23.89
2023-03-30T01:35:00.669Z,23.89
2023-03-30T01:36:00.692Z,23.89
2023-03-30T01:37:00.651Z,23.89
2023-03-30T01:38:00.668Z,23.91
2023-03-30T01:39:00.677Z,23.91
2023-03-30T01:40:00.697Z,23.89
2023-03-30T01:41:00.860Z,23.91
2023-03-30T01:42:00.719Z,23.91
2023-03-30T01:43:01.439Z,23.91
2023-03-30T01:44:00.816Z,23.88
2023-03-30T01:45:01.108Z,23.88
2023-03-30T01:46:00.786Z,23.89
2023-03-30T01:47:01.580Z,23.87
2023-03-30T01:48:00.839Z,23.87
2023-03-30T01:49:00.861Z,23.89
2023-03-30T01:50:00.913Z,23.88
2023-03-30T01:51:01.069Z,23.87
2023-03-30T01:52:00.910Z,23.87
2023-03-30T01:53:00.931Z,23.87
2023-03-30T01:54:00.944Z,23.87
2023-03-30T01:55:00.974Z,23.87
2023-03-30T01:56:00.984Z,23.91
2023-03-30T01:57:01.025Z,23.87
2023-03-30T01:58:01.016Z,23.88
2023-03-30T01:59:01.037Z,23.88
2023-03-30T02:00:01.072Z,23.88
2023-03-30T02:01:01.218Z,23.89
2023-03-30T02:02:01.154Z,23.88
2023-03-30T02:03:01.178Z,23.87
2023-03-30T02:04:01.193Z,23.91
2023-03-30T02:05:01.168Z,23.89
2023-03-30T02:06:01.187Z,23.88
2023-03-30T02:07:01.204Z,23.89
2023-03-30T02:08:01.230Z,23.88
2023-03-30T02:09:01.252Z,23.88
2023-03-30T02:10:01.256Z,23.88
2023-03-30T02:11:02.281Z,23.89
2023-03-30T02:12:01.297Z,23.87
2023-03-30T02:13:01.313Z,23.88
2023-03-30T02:14:01.338Z,23.89
2023-03-30T02:15:01.373Z,23.89
2023-03-30T02:16:01.406Z,23.89
2023-03-30T02:17:01.380Z,23.88
2023-03-30T02:18:01.414Z,23.91
2023-03-30T02:19:01.943Z,23.88
2023-03-30T02:20:01.439Z,23.88
2023-03-30T02:21:01.631Z,23.88
2023-03-30T02:22:01.489Z,23.88
2023-03-30T02:23:01.508Z,23.87
2023-03-30T02:24:01.541Z,23.88
2023-03-30T02:25:01.579Z,23.88
2023-03-30T02:26:01.561Z,23.88
2023-03-30T02:27:01.591Z,23.88
2023-03-30T02:28:01.605Z,23.87
2023-03-30T02:29:01.678Z,23.85
2023-03-30T02:30:01.675Z,23.87
2023-03-30T02:31:01.928Z,23.87
2023-03-30T02:32:01.962Z,23.87
2023-03-30T02:33:01.745Z,23.85
2023-03-30T02:34:01.724Z,23.85
2023-03-30T02:35:01.740Z,23.84
2023-03-30T02:36:01.810Z,23.87
2023-03-30T02:37:01.812Z,23.87
2023-03-30T02:38:01.806Z,23.84
2023-03-30T02:39:01.839Z,23.84
2023-03-30T02:40:01.858Z,23.84
2023-03-30T02:41:02.056Z,23.87
2023-03-30T02:42:01.895Z,23.84
2023-03-30T02:43:01.918Z,23.84
2023-03-30T02:44:01.960Z,23.81
2023-03-30T02:45:01.968Z,23.84
2023-03-30T02:46:02.051Z,23.84
2023-03-30T02:47:02.003Z,23.87
2023-03-30T02:48:02.068Z,23.81
2023-03-30T02:49:02.046Z,23.83
2023-03-30T02:50:02.084Z,23.84
2023-03-30T02:51:02.421Z,23.84
2023-03-30T02:52:02.101Z,23.83
2023-03-30T02:53:02.133Z,23.84
2023-03-30T02:54:02.138Z,23.84
2023-03-30T02:55:02.451Z,23.84
2023-03-30T02:56:02.190Z,23.84
2023-03-30T02:57:02.268Z,23.84
2023-03-30T02:58:02.243Z,23.83
2023-03-30T02:59:02.276Z,23.81
2023-03-30T03:00:02.312Z,23.81
2023-03-30T03:01:02.677Z,23.84
2023-03-30T03:02:02.393Z,23.84
2023-03-30T03:03:02.502Z,23.87
2023-03-30T03:04:02.387Z,23.85
2023-03-30T03:05:02.400Z,23.89
2023-03-30T03:06:02.415Z,23.91
2023-03-30T03:07:02.449Z,23.94
2023-03-30T03:08:02.448Z,23.97
2023-03-30T03:09:02.446Z,23.98
2023-03-30T03:10:02.957Z,23.98
2023-03-30T03:11:02.581Z,24.00
2023-03-30T03:12:02.477Z,24.01
2023-03-30T03:13:02.468Z,24.04
2023-03-30T03:14:02.471Z,24.05
2023-03-30T03:15:02.476Z,24.04
2023-03-30T03:16:04.273Z,24.09
2023-03-30T03:17:02.532Z,24.09
2023-03-30T03:18:02.487Z,24.08
2023-03-30T03:19:02.453Z,24.12
2023-03-30T03:20:02.461Z,24.12
2023-03-30T03:21:02.624Z,24.12
2023-03-30T03:22:02.436Z,24.15
2023-03-30T03:23:02.434Z,24.15
2023-03-30T03:24:02.428Z,24.15
2023-03-30T03:25:02.426Z,24.18
2023-03-30T03:26:02.414Z,24.19
2023-03-30T03:27:02.454Z,24.15
2023-03-30T03:28:02.401Z,24.18
2023-03-30T03:29:02.522Z,24.18
2023-03-30T03:30:02.388Z,24.22
2023-03-30T03:31:02.846Z,24.22
2023-03-30T03:32:02.430Z,24.21
2023-03-30T03:33:02.445Z,24.21
2023-03-30T03:34:02.335Z,24.22
2023-03-30T03:35:02.331Z,24.23
2023-03-30T03:36:02.347Z,24.23
2023-03-30T03:37:02.331Z,24.22
2023-03-30T03:38:02.294Z,24.23
2023-03-30T03:39:02.280Z,24.25
2023-03-30T03:40:02.961Z,24.25
2023-03-30T03:41:02.490Z,24.26
2023-03-30T03:42:02.229Z,24.26
2023-03-30T03:43:02.231Z,24.28
2023-03-30T03:44:02.222Z,24.26
2023-03-30T03:45:02.196Z,24.26
2023-03-30T03:46:02.224Z,24.28
2023-03-30T03:47:02.169Z,24.29
2023-03-30T03:48:02.197Z,24.26
2023-03-30T03:49:02.134Z,24.30
2023-03-30T03:50:02.114Z,24.29
2023-03-30T03:51:02.321Z,24.28
2023-03-30T03:52:02.101Z,24.28
2023-03-30T03:53:02.086Z,24.29
2023-03-30T03:54:02.136Z,24.29
2023-03-30T03:55:02.970Z,24.29
2023-03-30T03:56:02.050Z,24.29
2023-03-30T03:57:02.104Z,24.29
2023-03-30T03:58:02.020Z,24.32
2023-03-30T03:59:02.045Z,24.30
2023-03-30T04:00:02.032Z,24.30
2023-03-30T04:01:02.223Z,24.32
2023-03-30T04:02:02.109Z,24.29
2023-03-30T04:03:02.055Z,24.32
2023-03-30T04:04:01.979Z,24.30
2023-03-30T04:05:02.013Z,24.30
2023-03-30T04:06:01.987Z,24.29
2023-03-30T04:07:01.968Z,24.32
2023-03-30T04:08:01.926Z,24.30
2023-03-30T04:09:01.903Z,24.30
2023-03-30T04:10:01.983Z,24.32
2023-03-30T04:11:02.088Z,24.30
2023-03-30T04:12:01.872Z,24.30
2023-03-30T04:13:01.866Z,24.32
2023-03-30T04:14:01.845Z,24.32
2023-03-30T04:15:01.840Z,24.30
2023-03-30T04:16:01.854Z,24.32
2023-03-30T04:17:01.819Z,24.32
2023-03-30T04:18:01.910Z,24.30
2023-03-30T04:19:01.811Z,24.30
2023-03-30T04:20:01.807Z,24.32
2023-03-30T04:21:01.917Z,24.32
2023-03-30T04:22:01.812Z,24.30
2023-03-30T04:23:01.889Z,24.33
2023-03-30T04:24:01.830Z,24.33
2023-03-30T04:25:01.853Z,24.35
2023-03-30T04:26:01.891Z,24.36
2023-03-30T04:27:01.887Z,24.33
2023-03-30T04:28:01.886Z,24.32
2023-03-30T04:29:01.884Z,24.33
2023-03-30T04:30:02.483Z,24.32
2023-03-30T04:31:02.201Z,24.33
2023-03-30T04:32:01.902Z,24.36
2023-03-30T04:33:01.917Z,24.36
2023-03-30T04:34:01.869Z,24.36
2023-03-30T04:35:01.866Z,24.35
2023-03-30T04:36:01.913Z,24.35
2023-03-30T04:37:01.855Z,24.35
2023-03-30T04:38:01.842Z,24.33
2023-03-30T04:39:01.824Z,24.36
2023-03-30T04:40:01.824Z,24.35
2023-03-30T04:41:02.079Z,24.32
2023-03-30T04:42:01.887Z,24.32
2023-03-30T04:43:01.844Z,24.32
2023-03-30T04:44:01.820Z,24.33
2023-03-30T04:45:01.842Z,24.33
2023-03-30T04:46:01.877Z,24.30
2023-03-30T04:47:01.856Z,24.35
2023-03-30T04:48:01.872Z,24.35
2023-03-30T04:49:01.850Z,24.35
2023-03-30T04:50:01.880Z,24.35
2023-03-30T04:51:01.968Z,24.35
2023-03-30T04:52:01.866Z,24.36
2023-03-30T04:53:01.866Z,24.38
2023-03-30T04:54:01.858Z,24.36
2023-03-30T04:55:01.882Z,24.36
2023-03-30T04:56:01.897Z,24.38
2023-03-30T04:57:01.926Z,24.36
2023-03-30T04:58:01.931Z,24.38
2023-03-30T04:59:01.938Z,24.35
2023-03-30T05:00:01.970Z,24.36
2023-03-30T05:01:02.202Z,24.35
2023-03-30T05:02:01.931Z,24.36
2023-03-30T05:03:01.948Z,24.35
2023-03-30T05:04:01.900Z,24.35
2023-03-30T05:05:01.890Z,24.36
2023-03-30T05:06:01.892Z,24.38
2023-03-30T05:07:01.948Z,24.35
2023-03-30T05:08:01.861Z,24.38
2023-03-30T05:09:01.838Z,24.40
2023-03-30T05:10:01.839Z,24.38
2023-03-30T05:11:02.077Z,24.39
2023-03-30T05:12:01.810Z,24.36
2023-03-30T05:13:01.801Z,24.35
2023-03-30T05:14:02.009Z,24.35
2023-03-30T05:15:01.825Z,24.35
2023-03-30T05:16:01.763Z,24.36
2023-03-30T05:17:01.781Z,24.38
2023-03-30T05:18:01.741Z,24.36
2023-03-30T05:19:01.765Z,24.36
2023-03-30T05:20:01.729Z,24.35
2023-03-30T05:21:01.985Z,24.35
2023-03-30T05:22:01.725Z,24.35
2023-03-30T05:23:01.697Z,24.33
2023-03-30T05:24:01.692Z,24.32
2023-03-30T05:25:01.685Z,24.32
2023-03-30T05:26:01.677Z,24.30
2023-03-30T05:27:01.659Z,24.26
2023-03-30T05:28:01.687Z,24.25
2023-03-30T05:29:01.643Z,24.25
2023-03-30T05:30:01.633Z,24.28
2023-03-30T05:31:01.751Z,24.25
2023-03-30T05:32:01.582Z,24.22
2023-03-30T05:33:01.704Z,24.22
2023-03-30T05:34:04.512Z,24.19
2023-03-30T05:35:01.573Z,24.18
2023-03-30T05:36:01.571Z,24.13
2023-03-30T05:37:01.521Z,24.18
2023-03-30T05:38:02.489Z,24.16
2023-03-30T05:39:01.460Z,24.16
2023-03-30T05:40:01.441Z,24.19
2023-03-30T05:41:01.474Z,24.22
2023-03-30T05:42:01.398Z,24.25
2023-03-30T05:43:01.392Z,24.28
2023-03-30T05:44:02.004Z,24.28
2023-03-30T05:45:01.330Z,24.29
2023-03-30T05:46:01.319Z,24.32
2023-03-30T05:47:01.258Z,24.33
2023-03-30T05:48:01.269Z,24.40
2023-03-30T05:49:01.233Z,24.42
2023-03-30T05:50:01.201Z,24.44
2023-03-30T05:51:02.624Z,24.47
2023-03-30T05:52:01.149Z,24.46
2023-03-30T05:53:01.196Z,24.49
2023-03-30T05:54:01.072Z,24.52
2023-03-30T05:55:01.048Z,24.53
2023-03-30T05:56:01.048Z,24.57
2023-03-30T05:57:01.544Z,24.62
2023-03-30T05:58:00.982Z,24.63
2023-03-30T05:59:01.018Z,24.62
2023-03-30T06:00:01.148Z,24.66
2023-03-30T06:01:00.888Z,24.66
2023-03-30T06:02:00.909Z,24.68
2023-03-30T06:03:00.978Z,24.73
2023-03-30T06:04:01.074Z,24.75
2023-03-30T06:05:01.100Z,24.77
2023-03-30T06:06:00.996Z,24.78
2023-03-30T06:07:01.040Z,24.83
2023-03-30T06:08:01.089Z,24.83
2023-03-30T06:09:01.131Z,24.85
2023-03-30T06:10:01.291Z,24.88
2023-03-30T06:11:01.422Z,24.88
2023-03-30T06:12:01.254Z,24.91
2023-03-30T06:13:01.285Z,24.92
2023-03-30T06:14:01.331Z,24.95
2023-03-30T06:15:01.371Z,24.95
2023-03-30T06:16:03.257Z,24.97
2023-03-30T06:17:02.084Z,24.99
2023-03-30T06:18:01.536Z,24.99
2023-03-30T06:19:01.539Z,25.01
2023-03-30T06:20:01.588Z,25.02
2023-03-30T06:21:01.832Z,25.05
2023-03-30T06:22:01.681Z,25.08
2023-03-30T06:23:01.722Z,25.14
2023-03-30T06:24:01.738Z,25.14
2023-03-30T06:25:01.792Z,25.17
2023-03-30T06:26:01.812Z,25.18
2023-03-30T06:27:01.842Z,25.15
2023-03-30T06:28:01.837Z,24.84
2023-03-30T06:29:01.872Z,24.59
2023-03-30T06:30:01.890Z,24.23
2023-03-30T06:31:02.009Z,24.01
2023-03-30T06:32:02.083Z,23.80
2023-03-30T06:33:02.070Z,23.52
2023-03-30T06:34:02.009Z,23.33
2023-03-30T06:35:02.014Z,23.29
2023-03-30T06:36:02.062Z,23.27
2023-03-30T06:37:02.134Z,23.38
2023-03-30T06:38:02.109Z,23.45
2023-03-30T06:39:03.549Z,23.57
2023-03-30T06:40:02.134Z,23.70
2023-03-30T06:41:02.285Z,23.80
2023-03-30T06:42:02.097Z,23.89
2023-03-30T06:43:02.730Z,23.97
2023-03-30T06:44:02.063Z,24.08
2023-03-30T06:45:02.039Z,24.16
2023-03-30T06:46:02.150Z,24.25
2023-03-30T06:47:02.012Z,24.32
2023-03-30T06:48:02.064Z,24.40
2023-03-30T06:49:01.983Z,24.46
2023-03-30T06:50:01.946Z,24.55
2023-03-30T06:51:02.227Z,24.57
2023-03-30T06:52:04.370Z,24.63
2023-03-30T06:53:02.043Z,24.68
2023-03-30T06:54:01.877Z,24.74
2023-03-30T06:55:01.834Z,24.80
2023-03-30T06:56:02.062Z,24.83
2023-03-30T06:57:01.833Z,24.88
2023-03-30T06:58:01.763Z,24.91
2023-03-30T06:59:01.725Z,24.95
2023-03-30T07:00:01.697Z,24.98
2023-03-30T07:01:01.896Z,25.04
2023-03-30T07:02:01.654Z,25.08
2023-03-30T07:03:01.638Z,25.12
2023-03-30T07:04:01.669Z,25.14
2023-03-30T07:05:01.571Z,25.17
2023-03-30T07:06:01.535Z,25.21
2023-03-30T07:07:01.512Z,25.23
2023-03-30T07:08:01.485Z,25.25
2023-03-30T07:09:01.458Z,25.25
2023-03-30T07:10:01.439Z,25.28
2023-03-30T07:11:01.527Z,25.26
2023-03-30T07:12:01.381Z,25.30
2023-03-30T07:13:01.351Z,25.30
2023-03-30T07:14:01.316Z,25.30
2023-03-30T07:15:01.309Z,25.32
2023-03-30T07:16:01.264Z,25.33
2023-03-30T07:17:01.281Z,25.35
2023-03-30T07:18:01.315Z,25.35
2023-03-30T07:19:01.177Z,25.37
2023-03-30T07:20:01.151Z,25.43
2023-03-30T07:21:01.241Z,25.45
2023-03-30T07:22:01.289Z,25.49
2023-03-30T07:23:01.088Z,25.45
2023-03-30T07:24:01.964Z,25.43
2023-03-30T07:25:01.031Z,25.40
2023-03-30T07:26:01.008Z,25.35
2023-03-30T07:27:01.016Z,25.26
2023-03-30T07:28:01.036Z,25.11
2023-03-30T07:29:01.081Z,24.98
2023-03-30T07:30:10.358Z,24.92
2023-03-30T07:31:02.361Z,24.87
2023-03-30T07:32:01.117Z,24.77
2023-03-30T07:33:01.168Z,24.70
2023-03-30T07:34:01.125Z,24.59
2023-03-30T07:35:02.043Z,24.46
2023-03-30T07:36:01.092Z,24.43
2023-03-30T07:37:01.331Z,24.46
2023-03-30T07:38:03.825Z,24.50
2023-03-30T07:39:01.057Z,24.52
2023-03-30T07:40:01.024Z,24.59
2023-03-30T07:41:01.070Z,24.56
2023-03-30T07:42:00.978Z,24.64
2023-03-30T07:43:00.936Z,24.70
2023-03-30T07:44:00.916Z,24.75
2023-03-30T07:45:01.547Z,24.83
2023-03-30T07:46:01.616Z,24.88
2023-03-30T07:47:00.860Z,24.92
2023-03-30T07:48:01.104Z,25.01
2023-03-30T07:49:00.816Z,25.04
2023-03-30T07:50:00.817Z,25.08
2023-03-30T07:51:00.944Z,25.14
2023-03-30T07:52:00.739Z,25.18
2023-03-30T07:53:00.719Z,25.23
2023-03-30T07:54:00.746Z,25.29
2023-03-30T07:55:00.637Z,25.35
2023-03-30T07:56:00.663Z,25.37
2023-03-30T07:57:00.623Z,25.42
2023-03-30T07:58:00.550Z,25.46
2023-03-30T07:59:01.744Z,25.47
2023-03-30T08:00:00.506Z,25.46
2023-03-30T08:01:00.463Z,25.47
2023-03-30T08:02:00.441Z,25.46
2023-03-30T08:03:00.497Z,25.47
2023-03-30T08:04:00.508Z,25.49
2023-03-30T08:05:00.515Z,25.49
2023-03-30T08:06:00.341Z,25.49
2023-03-30T08:07:00.326Z,25.49
2023-03-30T08:08:00.297Z,25.49
2023-03-30T08:09:00.250Z,25.49
2023-03-30T08:10:01.056Z,25.47
2023-03-30T08:11:00.206Z,25.47
2023-03-30T08:12:00.176Z,25.43
2023-03-30T08:13:00.158Z,25.42
2023-03-30T08:14:00.181Z,25.42
2023-03-30T08:15:00.165Z,25.35
2023-03-30T08:16:00.159Z,25.19
2023-03-30T08:17:00.105Z,25.05
2023-03-30T08:18:00.139Z,24.92
2023-03-30T08:19:01.063Z,24.81
2023-03-30T08:20:00.172Z,24.70
2023-03-30T08:21:00.185Z,24.44
2023-03-30T08:22:00.185Z,24.29
2023-03-30T08:23:00.216Z,24.16
2023-03-30T08:24:00.246Z,24.09
2023-03-30T08:25:00.284Z,24.02
2023-03-30T08:26:00.320Z,23.97
2023-03-30T08:27:00.417Z,23.89
2023-03-30T08:28:00.449Z,23.87
2023-03-30T08:29:00.507Z,23.88
2023-03-30T08:30:00.527Z,23.88
2023-03-30T08:31:00.586Z,23.88
2023-03-30T08:32:01.723Z,23.85
2023-03-30T08:33:00.710Z,23.87
2023-03-30T08:34:00.614Z,23.89
2023-03-30T08:35:00.545Z,23.95
2023-03-30T08:36:00.577Z,24.02
2023-03-30T08:37:00.493Z,24.11
2023-03-30T08:38:00.490Z,24.18
2023-03-30T08:39:01.067Z,24.25
2023-03-30T08:40:00.448Z,24.29
2023-03-30T08:41:01.629Z,24.38
2023-03-30T08:42:00.392Z,24.42
2023-03-30T08:43:01.106Z,24.46
2023-03-30T08:44:02.096Z,24.53
2023-03-30T08:45:01.326Z,24.60
2023-03-30T08:46:00.409Z,24.63
2023-03-30T08:47:00.280Z,24.67
2023-03-30T08:48:00.352Z,24.73
2023-03-30T08:49:00.239Z,24.75
2023-03-30T08:50:00.611Z,24.80
2023-03-30T08:51:00.235Z,24.80
2023-03-30T08:52:02.580Z,24.88
2023-03-30T08:53:00.136Z,24.87
2023-03-30T08:54:00.107Z,24.94
2023-03-30T08:55:01.120Z,24.97
2023-03-30T08:56:00.579Z,25.01
2023-03-30T08:57:00.043Z,25.01
2023-03-30T08:58:00.002Z,25.02
2023-03-30T08:58:59.983Z,25.02
2023-03-30T08:59:59.944Z,25.04
2023-03-30T09:01:00.618Z,25.07
2023-03-30T09:02:00.182Z,25.04
2023-03-30T09:02:59.889Z,25.08
2023-03-30T09:04:00.580Z,25.09
2023-03-30T09:04:59.830Z,25.11
2023-03-30T09:05:59.762Z,25.11
2023-03-30T09:06:59.735Z,25.11
2023-03-30T09:07:59.741Z,25.12
2023-03-30T09:08:59.656Z,25.12
2023-03-30T09:09:59.611Z,25.14
2023-03-30T09:10:59.594Z,25.12
2023-03-30T09:11:59.593Z,25.15
2023-03-30T09:12:59.520Z,25.17
2023-03-30T09:13:59.499Z,25.15
2023-03-30T09:14:59.453Z,25.18
2023-03-30T09:15:59.418Z,25.18
2023-03-30T09:16:59.437Z,25.21
2023-03-30T09:17:59.469Z,25.26
2023-03-30T09:18:59.332Z,25.26
2023-03-30T09:19:59.295Z,25.22
2023-03-30T09:20:59.280Z,25.29
2023-03-30T09:21:59.242Z,25.29
2023-03-30T09:22:59.208Z,25.35
2023-03-30T09:23:59.188Z,25.33
2023-03-30T09:24:59.203Z,25.33
2023-03-30T09:26:01.501Z,25.35
2023-03-30T09:26:59.191Z,25.33
2023-03-30T09:27:59.187Z,25.33
2023-03-30T09:28:59.193Z,25.35
2023-03-30T09:29:59.172Z,25.33
2023-03-30T09:30:59.167Z,25.35
2023-03-30T09:31:59.163Z,25.36
2023-03-30T09:32:59.153Z,25.36
2023-03-30T09:33:59.110Z,25.37
2023-03-30T09:34:59.109Z,25.36
2023-03-30T09:35:59.134Z,25.39
2023-03-30T09:36:59.091Z,25.42
2023-03-30T09:37:59.065Z,25.40
2023-03-30T09:38:59.021Z,25.42
2023-03-30T09:39:59.008Z,25.43
2023-03-30T09:40:58.967Z,25.46
2023-03-30T09:41:59.009Z,25.47
2023-03-30T09:42:58.902Z,25.47
2023-03-30T09:43:58.938Z,25.49
2023-03-30T09:44:58.859Z,25.49
2023-03-30T09:45:58.863Z,25.49
2023-03-30T09:46:58.776Z,25.50
2023-03-30T09:47:58.807Z,25.52
2023-03-30T09:48:58.697Z,25.54
2023-03-30T09:49:58.706Z,25.56
2023-03-30T09:51:01.605Z,25.59
2023-03-30T09:51:58.637Z,25.62
2023-03-30T09:52:58.583Z,25.62
2023-03-30T09:53:58.558Z,25.64
2023-03-30T09:54:58.515Z,25.67
2023-03-30T09:55:58.484Z,25.69
2023-03-30T09:56:58.460Z,25.69
2023-03-30T09:57:58.414Z,25.70
2023-03-30T09:58:58.373Z,25.72
2023-03-30T09:59:58.350Z,25.73
2023-03-30T10:00:58.312Z,25.76
2023-03-30T10:01:58.354Z,25.77
2023-03-30T10:02:59.232Z,25.77
2023-03-30T10:03:58.437Z,25.81
2023-03-30T10:04:58.305Z,25.83
2023-03-30T10:05:58.140Z,25.85
2023-03-30T10:07:02.238Z,25.84
2023-03-30T10:07:59.072Z,25.83
2023-03-30T10:08:58.037Z,25.85
2023-03-30T10:09:58.001Z,25.87
2023-03-30T10:10:57.974Z,25.85
2023-03-30T10:11:57.941Z,25.85
2023-03-30T10:12:57.902Z,25.85
2023-03-30T10:13:57.865Z,25.84
2023-03-30T10:14:57.821Z,25.84
2023-03-30T10:15:57.802Z,25.80
2023-03-30T10:16:57.750Z,25.81
2023-03-30T10:17:57.728Z,25.79
2023-03-30T10:18:57.689Z,25.80
2023-03-30T10:20:07.118Z,25.77
2023-03-30T10:20:58.610Z,25.81
2023-03-30T10:21:57.649Z,25.81
2023-03-30T10:22:57.548Z,25.79
2023-03-30T10:23:57.514Z,25.80
2023-03-30T10:24:57.497Z,25.80
2023-03-30T10:25:57.458Z,25.79
2023-03-30T10:26:57.414Z,25.79
2023-03-30T10:27:57.388Z,25.79
2023-03-30T10:28:57.448Z,25.76
2023-03-30T10:29:57.318Z,25.77
2023-03-30T10:30:57.375Z,25.76
2023-03-30T10:31:57.405Z,25.74
2023-03-30T10:32:57.344Z,25.74
2023-03-30T10:33:57.280Z,25.76
2023-03-30T10:34:57.167Z,25.74
2023-03-30T10:35:57.162Z,25.73
2023-03-30T10:36:57.175Z,25.73
2023-03-30T10:37:57.103Z,25.74
2023-03-30T10:38:57.125Z,25.74
2023-03-30T10:39:57.199Z,25.72
2023-03-30T10:40:57.154Z,25.74
2023-03-30T10:41:59.708Z,25.73
2023-03-30T10:42:58.049Z,25.74
2023-03-30T10:43:57.115Z,25.73
2023-03-30T10:44:57.084Z,25.72
2023-03-30T10:46:01.494Z,25.70
2023-03-30T10:46:58.042Z,25.72
2023-03-30T10:47:59.458Z,25.72
2023-03-30T10:48:56.949Z,25.73
2023-03-30T10:49:56.913Z,25.70
2023-03-30T10:50:56.881Z,25.69
2023-03-30T10:51:56.852Z,25.70
2023-03-30T10:52:59.399Z,25.70
2023-03-30T10:53:58.564Z,25.69
2023-03-30T10:54:57.633Z,25.70
2023-03-30T10:55:56.741Z,25.67
2023-03-30T10:56:56.738Z,25.69
2023-03-30T10:57:56.658Z,25.69
2023-03-30T10:58:56.679Z,25.69
2023-03-30T10:59:59.354Z,25.69
2023-03-30T11:00:56.578Z,25.67
2023-03-30T11:01:56.528Z,25.70
2023-03-30T11:02:56.576Z,25.67
2023-03-30T11:03:56.582Z,25.64
2023-03-30T11:04:56.429Z,25.67
2023-03-30T11:05:56.395Z,25.67
2023-03-30T11:06:56.356Z,25.67
2023-03-30T11:07:56.325Z,25.67
2023-03-30T11:08:56.321Z,25.66
2023-03-30T11:09:56.297Z,25.67
2023-03-30T11:10:56.242Z,25.64
2023-03-30T11:11:56.218Z,25.64
2023-03-30T11:12:56.268Z,25.66
2023-03-30T11:13:56.154Z,25.66
2023-03-30T11:14:56.123Z,25.62
2023-03-30T11:15:56.093Z,25.64
2023-03-30T11:16:56.162Z,25.64
2023-03-30T11:17:56.073Z,25.63
2023-03-30T11:18:56.085Z,25.63
2023-03-30T11:19:56.011Z,25.64
2023-03-30T11:20:55.989Z,25.63
2023-03-30T11:21:55.956Z,25.62
2023-03-30T11:22:55.925Z,25.62
2023-03-30T11:23:55.905Z,25.64
2023-03-30T11:24:55.934Z,25.63
2023-03-30T11:25:55.846Z,25.63
2023-03-30T11:26:55.819Z,25.63
2023-03-30T11:27:56.461Z,25.63
2023-03-30T11:28:56.139Z,25.62
2023-03-30T11:29:55.740Z,25.62
2023-03-30T11:30:55.711Z,25.63
2023-03-30T11:31:55.842Z,25.63
2023-03-30T11:32:55.850Z,25.63
2023-03-30T11:33:55.757Z,25.63
2023-03-30T11:34:55.798Z,25.62
2023-03-30T11:35:55.994Z,25.59
2023-03-30T11:36:55.839Z,25.60
2023-03-30T11:37:55.876Z,25.60
2023-03-30T11:38:55.909Z,25.63
2023-03-30T11:39:55.944Z,25.60
2023-03-30T11:40:55.972Z,25.63
2023-03-30T11:41:56.021Z,25.60
2023-03-30T11:42:56.051Z,25.63
2023-03-30T11:43:56.639Z,25.63
2023-03-30T11:44:56.150Z,25.59
2023-03-30T11:45:56.170Z,25.63
2023-03-30T11:46:56.163Z,25.60
2023-03-30T11:47:56.226Z,25.59
2023-03-30T11:48:56.244Z,25.62
2023-03-30T11:49:56.278Z,25.59
2023-03-30T11:50:56.310Z,25.59
2023-03-30T11:51:56.348Z,25.57
2023-03-30T11:52:56.355Z,25.59
2023-03-30T11:53:56.386Z,25.60
2023-03-30T11:55:03.063Z,25.59
2023-03-30T11:55:57.377Z,25.56
2023-03-30T11:56:56.362Z,25.59
2023-03-30T11:57:56.656Z,25.57
2023-03-30T11:58:56.281Z,25.59
2023-03-30T11:59:56.302Z,25.56
2023-03-30T12:00:56.253Z,25.56
2023-03-30T12:01:56.655Z,25.54
2023-03-30T12:02:56.235Z,25.56
2023-03-30T12:03:56.332Z,25.56
2023-03-30T12:04:56.222Z,25.54
2023-03-30T12:05:56.204Z,25.53
2023-03-30T12:06:56.233Z,25.54
2023-03-30T12:07:56.223Z,25.54
2023-03-30T12:08:56.221Z,25.52
2023-03-30T12:09:56.247Z,25.52
2023-03-30T12:10:57.154Z,25.53
2023-03-30T12:11:56.288Z,25.54
2023-03-30T12:12:56.296Z,25.50
2023-03-30T12:13:56.268Z,25.49
2023-03-30T12:14:57.077Z,25.43
2023-03-30T12:15:56.263Z,25.43
2023-03-30T12:16:56.221Z,25.40
2023-03-30T12:17:56.224Z,25.36
2023-03-30T12:18:56.204Z,25.37
2023-03-30T12:19:56.981Z,25.32
2023-03-30T12:20:56.171Z,25.29
2023-03-30T12:21:56.178Z,25.26
2023-03-30T12:22:56.170Z,25.23
2023-03-30T12:23:56.239Z,25.23
2023-03-30T12:24:56.183Z,25.22
2023-03-30T12:25:56.152Z,25.22
2023-03-30T12:27:05.505Z,25.21
2023-03-30T12:27:57.111Z,25.23
2023-03-30T12:29:32.726Z,25.23
2023-03-30T12:30:02.416Z,25.21
2023-03-30T12:30:57.072Z,25.21
2023-03-30T12:31:56.126Z,25.21
2023-03-30T12:32:56.040Z,25.21
2023-03-30T12:33:55.972Z,25.22
2023-03-30T12:34:55.951Z,25.25
2023-03-30T12:35:55.933Z,25.25
2023-03-30T12:36:55.888Z,25.26
2023-03-30T12:37:55.863Z,25.30
2023-03-30T12:38:55.831Z,25.29
2023-03-30T12:39:55.799Z,25.32
2023-03-30T12:40:55.788Z,25.28
2023-03-30T12:41:56.997Z,25.32
2023-03-30T12:42:55.724Z,25.33
2023-03-30T12:43:55.759Z,25.33
2023-03-30T12:44:55.663Z,25.33
2023-03-30T12:45:55.664Z,25.35
2023-03-30T12:46:55.612Z,25.33
2023-03-30T12:47:55.656Z,25.36
2023-03-30T12:48:55.594Z,25.37
2023-03-30T12:49:55.529Z,25.35
2023-03-30T12:50:55.494Z,25.35
2023-03-30T12:51:55.465Z,25.35
2023-03-30T12:52:55.456Z,25.37